Time;durP1;ratioP1;P1;durP2;ratioP2;P2;SDS_P1;SDS_P2;PMS_P1;PMS_P2;Temp;Humidity;BMP_temperature;BMP_pressure;BME280_temperature;BME280_humidity;BME280_pressure;Samples;Min_cycle;Max_cycle;Signal;HPM_P1;HPM_P2
2024/01/19 00:03:35;;;;;;;11.65;2.45;;;3.80;99.90;;;;;;20870322;28;20032;-43
2024/01/19 00:13:37;;;;;;;5.78;1.58;;;3.80;99.90;;;;;;20871374;28;20114;-43
2024/01/19 00:23:39;;;;;;;13.15;4.88;;;3.60;99.90;;;;;;20856379;28;20070;-49
2024/01/19 00:33:41;;;;;;;10.70;4.70;;;3.40;99.90;;;;;;20893678;28;20052;-45
2024/01/19 00:43:43;;;;;;;10.52;3.55;;;3.30;99.90;;;;;;20927197;28;20413;-44
2024/01/19 00:53:48;;;;;;;3.28;1.30;;;3.30;99.90;;;;;;20928277;28;20184;-43
2024/01/19 01:03:55;;;;;;;8.55;2.40;;;3.60;99.90;;;;;;20927648;28;20040;-44
2024/01/19 01:13:57;;;;;;;11.63;2.60;;;4.10;99.90;;;;;;20925284;28;20582;-43
2024/01/19 01:23:59;;;;;;;10.80;2.42;;;4.00;99.90;;;;;;20924555;28;20031;-43
2024/01/19 01:34:03;;;;;;;14.10;5.90;;;4.00;99.90;;;;;;20924521;28;20052;-43
2024/01/19 01:44:05;;;;;;;11.93;4.55;;;3.90;99.90;;;;;;20925620;28;20040;-43
2024/01/19 01:54:07;;;;;;;15.10;4.20;;;3.70;99.90;;;;;;20922347;28;20554;-45
2024/01/19 02:04:11;;;;;;;14.23;5.15;;;3.80;99.90;;;;;;20920280;28;20497;-43
2024/01/19 02:14:13;;;;;;;11.43;4.57;;;3.70;99.90;;;;;;20919783;28;20036;-43
2024/01/19 02:24:15;;;;;;;10.52;3.10;;;3.60;99.90;;;;;;20921891;28;20044;-46
2024/01/19 02:34:17;;;;;;;9.93;3.22;;;3.70;99.90;;;;;;20912643;28;20040;-45
2024/01/19 02:44:22;;;;;;;18.15;4.70;;;3.90;99.90;;;;;;20878450;28;20036;-43
2024/01/19 02:54:23;;;;;;;15.63;6.07;;;3.90;99.90;;;;;;20873387;28;20041;-42
2024/01/19 03:04:26;;;;;;;13.07;5.60;;;3.70;99.90;;;;;;20876434;28;20040;-45
2024/01/19 03:14:27;;;;;;;31.88;8.85;;;3.60;99.90;;;;;;20874631;28;20430;-44
2024/01/19 03:24:29;;;;;;;11.82;5.25;;;3.60;99.90;;;;;;20872334;28;20094;-44
2024/01/19 03:34:31;;;;;;;54.33;6.97;;;3.60;99.90;;;;;;20882467;28;20044;-44
2024/01/19 03:44:33;;;;;;;520.15;19.85;;;3.50;99.90;;;;;;20914043;28;20664;-44
2024/01/19 03:54:40;;;;;;;738.03;29.50;;;3.40;99.90;;;;;;20915426;28;20949;-44
2024/01/19 04:04:42;;;;;;;201.60;8.82;;;3.20;99.90;;;;;;20912124;28;20028;-44
2024/01/19 04:14:45;;;;;;;438.20;18.45;;;3.20;99.90;;;;;;20912443;28;20040;-44
2024/01/19 04:24:47;;;;;;;202.70;9.93;;;3.10;99.90;;;;;;20911947;28;20953;-44
2024/01/19 04:34:48;;;;;;;255.45;11.38;;;3.00;99.90;;;;;;20910065;28;20044;-44
2024/01/19 04:44:51;;;;;;;41.03;5.32;;;2.90;99.90;;;;;;20912340;28;20058;-44
2024/01/19 04:54:53;;;;;;;1999.90;122.60;;;3.00;99.90;;;;;;20911234;28;21207;-44
2024/01/19 05:04:55;;;;;;;505.80;24.42;;;2.60;99.90;;;;;;20910178;28;20040;-43
2024/01/19 05:14:56;;;;;;;22.65;7.43;;;2.20;99.90;;;;;;20920200;28;20676;-41
2024/01/19 05:24:59;;;;;;;7.45;5.35;;;2.20;99.90;;;;;;20924026;28;20069;-43
2024/01/19 05:35:01;;;;;;;4.38;2.90;;;2.00;99.90;;;;;;20911283;28;20675;-45
2024/01/19 05:45:03;;;;;;;3.47;2.10;;;1.80;99.90;;;;;;20881185;28;21143;-45
2024/01/19 05:55:08;;;;;;;2.35;1.40;;;1.70;99.90;;;;;;20870795;28;20044;-44
2024/01/19 06:05:10;;;;;;;0.73;0.50;;;1.70;99.90;;;;;;20881233;28;20028;-43
2024/01/19 06:15:12;;;;;;;0.32;0.30;;;1.70;99.90;;;;;;20878313;28;20089;-44
2024/01/19 06:25:14;;;;;;;0.43;0.10;;;1.70;99.90;;;;;;20874394;28;20043;-44
2024/01/19 06:35:16;;;;;;;1.95;0.10;;;1.80;99.90;;;;;;20874258;28;20040;-43
2024/01/19 06:45:18;;;;;;;0.10;0.00;;;1.80;99.90;;;;;;20871549;28;20032;-44
2024/01/19 06:55:24;;;;;;;0.43;0.10;;;1.80;99.90;;;;;;20857569;28;20058;-45
2024/01/19 07:05:26;;;;;;;0.10;0.10;;;1.70;99.90;;;;;;20871436;28;20132;-43
2024/01/19 07:15:28;;;;;;;0.10;0.00;;;1.70;99.90;;;;;;20870409;28;20043;-45
2024/01/19 07:25:30;;;;;;;0.82;0.08;;;1.70;99.90;;;;;;20870845;28;20333;-43
2024/01/19 07:35:32;;;;;;;0.30;0.10;;;1.50;99.90;;;;;;20855813;28;20039;-44
2024/01/19 07:45:37;;;;;;;0.30;0.00;;;1.60;99.90;;;;;;20848333;28;20063;-44
2024/01/19 07:55:39;;;;;;;0.20;0.10;;;1.60;99.90;;;;;;20867779;28;20040;-44
2024/01/19 08:05:41;;;;;;;0.00;0.00;;;2.00;99.90;;;;;;20872369;28;20040;-43
2024/01/19 08:15:43;;;;;;;0.80;0.30;;;2.40;99.90;;;;;;20869028;28;21211;-43
2024/01/19 08:25:45;;;;;;;1.30;0.50;;;2.50;99.90;;;;;;20867528;28;21201;-42
2024/01/19 08:35:48;;;;;;;0.38;0.20;;;2.40;99.90;;;;;;20880752;28;20102;-41
2024/01/19 08:45:49;;;;;;;0.57;0.30;;;2.50;99.90;;;;;;20913020;28;20044;-42
2024/01/19 08:55:51;;;;;;;0.45;0.20;;;2.50;99.90;;;;;;20923580;28;20031;-45
2024/01/19 09:05:53;;;;;;;1.02;0.20;;;2.50;99.90;;;;;;20921167;28;21190;-43
2024/01/19 09:15:56;;;;;;;0.47;0.20;;;2.70;99.90;;;;;;20921644;28;20032;-42
2024/01/19 09:25:58;;;;;;;0.40;0.20;;;2.80;99.90;;;;;;20921597;28;20451;-42
2024/01/19 09:36:00;;;;;;;0.60;0.30;;;3.10;99.90;;;;;;20906563;28;20106;-44
2024/01/19 09:46:06;;;;;;;0.25;0.15;;;3.10;99.90;;;;;;20880931;28;20591;-43
2024/01/19 09:56:10;;;;;;;0.30;0.13;;;2.90;99.90;;;;;;20878233;28;20036;-42
2024/01/19 10:06:12;;;;;;;0.10;0.10;;;2.90;99.90;;;;;;20876472;28;20129;-42
2024/01/19 10:16:14;;;;;;;0.40;0.10;;;2.00;99.90;;;;;;20877742;28;20028;-43
2024/01/19 10:26:19;;;;;;;0.00;0.00;;;2.30;99.90;;;;;;20875332;28;20909;-44
2024/01/19 10:36:21;;;;;;;0.32;0.10;;;2.40;98.90;;;;;;20874882;28;20048;-42
2024/01/19 10:46:24;;;;;;;0.65;0.10;;;3.30;97.90;;;;;;20875680;28;20040;-45
2024/01/19 10:56:25;;;;;;;0.38;0.00;;;2.50;97.80;;;;;;20874770;28;20032;-43
2024/01/19 11:06:28;;;;;;;0.17;0.10;;;2.30;97.40;;;;;;20871321;28;20103;-42
2024/01/19 11:16:40;;;;;;;0.17;0.00;;;1.90;97.50;;;;;;20868001;28;20501;-42
2024/01/19 11:27:06;;;;;;;0.20;0.00;;;1.80;96.70;;;;;;20871808;28;20096;-43
2024/01/19 11:37:09;;;;;;;0.13;0.00;;;1.60;97.00;;;;;;20869250;28;20049;-43
2024/01/19 11:47:36;;;;;;;0.03;0.00;;;1.50;96.50;;;;;;20870131;28;20375;-42
2024/01/19 11:57:37;;;;;;;0.10;0.00;;;1.60;96.20;;;;;;20868328;28;20037;-44
2024/01/19 12:07:41;;;;;;;0.30;0.10;;;1.70;95.00;;;;;;20871800;28;20063;-42
2024/01/19 12:17:44;;;;;;;0.52;0.10;;;1.80;95.00;;;;;;20837051;28;20122;-42
2024/01/19 12:27:47;;;;;;;0.10;0.10;;;2.10;94.70;;;;;;20857191;28;20036;-42
2024/01/19 12:37:52;;;;;;;0.32;0.10;;;2.40;95.20;;;;;;20904637;28;20418;-42
2024/01/19 12:47:54;;;;;;;0.08;0.00;;;2.40;94.40;;;;;;20923790;28;20039;-43
2024/01/19 12:57:56;;;;;;;0.10;0.00;;;2.30;94.70;;;;;;20923783;28;20036;-44
2024/01/19 13:08:01;;;;;;;0.25;0.10;;;1.70;97.40;;;;;;20923230;28;20090;-43
2024/01/19 13:18:07;;;;;;;0.52;0.13;;;0.90;99.90;;;;;;20921017;28;20044;-44
2024/01/19 13:28:09;;;;;;;0.20;0.10;;;0.40;98.90;;;;;;20921380;28;20101;-43
2024/01/19 13:38:11;;;;;;;0.20;0.10;;;1.00;98.90;;;;;;20898309;28;20052;-44
2024/01/19 13:48:13;;;;;;;0.10;0.10;;;1.00;96.00;;;;;;20877044;28;20130;-43
2024/01/19 13:58:15;;;;;;;0.30;0.10;;;0.80;96.10;;;;;;20876173;28;21187;-42
2024/01/19 14:08:19;;;;;;;0.90;0.20;;;0.70;95.10;;;;;;20874983;28;21142;-42
2024/01/19 14:18:20;;;;;;;0.43;0.10;;;0.60;96.10;;;;;;20876509;28;20036;-43
2024/01/19 14:28:22;;;;;;;0.30;0.03;;;0.30;96.60;;;;;;20873715;28;20044;-43
2024/01/19 14:38:27;;;;;;;0.55;0.15;;;0.10;96.10;;;;;;20874544;28;20053;-42
2024/01/19 14:48:29;;;;;;;0.52;0.20;;;0.10;99.00;;;;;;20872353;28;20561;-42
2024/01/19 14:58:31;;;;;;;0.17;0.10;;;0.00;96.10;;;;;;20872795;28;20070;-42
2024/01/19 15:08:38;;;;;;;0.10;0.10;;;-0.10;94.70;;;;;;20869548;28;21485;-43
2024/01/19 15:18:42;;;;;;;0.17;0.05;;;-0.10;92.60;;;;;;20870971;28;20485;-42
2024/01/19 15:28:44;;;;;;;0.30;0.10;;;-0.10;92.40;;;;;;20869873;28;20028;-42
2024/01/19 15:38:46;;;;;;;0.50;0.20;;;-0.30;91.60;;;;;;20893536;28;20598;-42
2024/01/19 15:48:50;;;;;;;0.40;0.20;;;-0.40;90.70;;;;;;20908970;28;21134;-43
2024/01/19 15:58:53;;;;;;;0.68;0.20;;;-0.40;90.40;;;;;;20910351;28;20109;-42
2024/01/19 16:09:01;;;;;;;0.60;0.10;;;-0.50;90.40;;;;;;20908947;28;20438;-41
2024/01/19 16:19:06;;;;;;;0.20;0.10;;;-0.60;89.10;;;;;;20909237;28;20093;-43
2024/01/19 16:29:08;;;;;;;0.70;0.28;;;-0.90;88.40;;;;;;20907622;28;20040;-43
2024/01/19 16:39:13;;;;;;;2.95;0.10;;;-1.30;87.70;;;;;;20910705;28;20145;-45
2024/01/19 16:49:15;;;;;;;0.40;0.10;;;-1.50;87.20;;;;;;20910664;28;20172;-43
2024/01/19 16:59:17;;;;;;;0.13;0.10;;;-1.60;81.90;;;;;;20911314;28;20059;-43
2024/01/19 17:09:19;;;;;;;0.30;0.10;;;-1.70;82.80;;;;;;20916809;28;20070;-45
2024/01/19 17:19:21;;;;;;;1.10;0.15;;;-2.00;83.20;;;;;;20904743;28;20040;-46
2024/01/19 17:29:22;;;;;;;0.10;0.10;;;-2.10;81.70;;;;;;20014082;28;10000192;-54
2024/01/19 17:39:24;;;;;;;0.30;0.10;;;-2.20;80.20;;;;;;20923015;28;20052;-43
2024/01/19 17:49:28;;;;;;;1.38;0.20;;;-2.30;80.80;;;;;;20925210;28;20048;-42
2024/01/19 17:59:30;;;;;;;0.50;0.20;;;-2.40;80.70;;;;;;20922866;28;20036;-43
2024/01/19 18:09:31;;;;;;;1.65;0.10;;;-2.50;75.80;;;;;;20923860;28;20040;-43
2024/01/19 18:19:36;;;;;;;1.00;0.17;;;-2.50;75.70;;;;;;20919897;28;20473;-43
2024/01/19 18:29:39;;;;;;;0.30;0.10;;;-2.60;74.20;;;;;;20919628;28;20066;-43
2024/01/19 18:39:42;;;;;;;0.52;0.10;;;-2.70;74.70;;;;;;20920999;28;20055;-41
2024/01/19 18:49:44;;;;;;;0.52;0.10;;;-2.70;73.30;;;;;;20919425;28;20043;-42
2024/01/19 18:59:46;;;;;;;0.10;0.00;;;-2.80;74.10;;;;;;20917411;28;20057;-42
2024/01/19 19:09:47;;;;;;;0.43;0.10;;;-3.00;72.00;;;;;;20916500;28;20036;-42
2024/01/19 19:19:49;;;;;;;0.52;0.10;;;-3.20;72.00;;;;;;20915434;28;20078;-42
2024/01/19 19:29:51;;;;;;;0.03;0.00;;;-3.30;71.30;;;;;;20915190;28;20129;-41
2024/01/19 19:39:53;;;;;;;0.35;0.10;;;-3.40;69.30;;;;;;20887700;28;20051;-41
2024/01/19 19:50:00;;;;;;;0.00;0.00;;;-3.60;73.50;;;;;;20871176;28;20078;-41
2024/01/19 20:00:03;;;;;;;0.30;0.00;;;-3.60;70.10;;;;;;20870435;28;20078;-41
2024/01/19 20:10:09;;;;;;;0.30;0.00;;;-3.60;71.30;;;;;;20873177;28;20186;-41
2024/01/19 20:20:11;;;;;;;0.20;0.08;;;-3.70;67.70;;;;;;20871328;28;20040;-42
2024/01/19 20:30:12;;;;;;;0.73;0.20;;;-3.70;67.50;;;;;;20850998;28;20044;-42
2024/01/19 20:40:14;;;;;;;1.50;0.10;;;-3.70;68.20;;;;;;20903253;28;20052;-41
2024/01/19 20:50:16;;;;;;;0.15;0.00;;;-3.70;68.80;;;;;;20928050;28;20058;-41
2024/01/19 21:00:22;;;;;;;0.55;0.10;;;-3.80;67.00;;;;;;20926615;28;20097;-42
2024/01/19 21:10:23;;;;;;;0.30;0.00;;;-3.80;66.40;;;;;;20926075;28;20040;-42
2024/01/19 21:20:26;;;;;;;0.25;0.10;;;-3.80;67.50;;;;;;20926205;28;20101;-44
2024/01/19 21:30:27;;;;;;;0.20;0.00;;;-3.90;67.50;;;;;;20922813;28;20039;-44
2024/01/19 21:40:29;;;;;;;0.20;0.10;;;-3.90;65.20;;;;;;20889245;28;20048;-42
2024/01/19 21:50:31;;;;;;;0.22;0.10;;;-3.90;66.30;;;;;;20877261;28;20044;-42
2024/01/19 22:00:33;;;;;;;0.15;0.00;;;-4.00;64.60;;;;;;20878276;28;20045;-43
2024/01/19 22:10:34;;;;;;;0.10;0.00;;;-4.00;64.00;;;;;;20875713;28;20036;-42
2024/01/19 22:20:36;;;;;;;1.38;0.00;;;-3.90;64.30;;;;;;20877027;28;20070;-42
2024/01/19 22:30:38;;;;;;;0.00;0.00;;;-4.00;61.20;;;;;;20877737;28;20850;-42
2024/01/19 22:40:40;;;;;;;0.10;0.00;;;-3.70;61.50;;;;;;20830620;28;1302249;-43
2024/01/19 22:50:41;;;;;;;0.00;0.00;;;-3.70;59.80;;;;;;20877268;28;20044;-42
2024/01/19 23:00:43;;;;;;;0.32;0.00;;;-3.60;60.10;;;;;;20879986;28;20068;-42
2024/01/19 23:10:45;;;;;;;0.20;0.00;;;-3.80;62.00;;;;;;20877928;28;20041;-44
2024/01/19 23:20:47;;;;;;;0.10;0.00;;;-4.20;64.70;;;;;;20874008;28;20040;-45
2024/01/19 23:30:49;;;;;;;0.20;0.00;;;-4.60;64.40;;;;;;20876442;28;20372;-43
2024/01/19 23:40:50;;;;;;;0.20;0.00;;;-4.80;64.80;;;;;;20906411;28;20060;-41
2024/01/19 23:50:52;;;;;;;0.60;0.10;;;-4.90;67.90;;;;;;20913810;28;20036;-42
